PAKT/KTN METAR and TAF weather

Enter ICAO airport designator
Station Type Date Time Source
PAKT METAR 2019/08/24 17:53 UTC NOAA

PAKT 241753Z 11008KT 10SM SCT005 OVC047 14/13 A2975 RMK SLP075 HARBOR WIND 12012KT 60000 T01390133 10139 20128 51021 VIA AUTODIAL


Station Type Date Time Source
PAKT Decoded METAR 2019/08/24 17:53 UTC NOAA

Station name not available
Aug 24, 2019 - 01:53 PM EDT / 2019.08.24 1753 UTC
Wind: from the ESE (110 degrees) at 9 MPH (8 KT):0
Visibility: 10 mile(s):0
Sky conditions: overcast
Temperature: 57.0 F (13.9 C)
Dew Point: 55.9 F (13.3 C)
Relative Humidity: 96%
Pressure (altimeter): 29.75 in. Hg (1007 hPa)
Pressure tendency: 0.06 inches (2.1 hPa) higher than three hours ago
ob: PAKT 241753Z 11008KT 10SM SCT005 OVC047 14/13 A2975 RMK SLP075 HARBOR WIND 12012KT 60000 T01390133 10139 20128 51021 VIA AUTODIAL
cycle: 18

Station Type Date Time Source
PAKT TAF 2019/08/24 18:39 UTC NOAA

TAF PAKT 241736Z 2418/2518 12008KT P6SM VCSH SCT015 BKN040 OVC060
TEMPO 2418/2421 BKN015
FM242300 30009KT P6SM VCSH BKN040
FM250900 13006KT P6SM VCSH BKN008 OVC060
AMD LTD TO CLD VIS AND WIND 2506/2515

Example: see airport list